Wendell, Idaho
Current Conditions -  °F | °C
As of 2:53 AM on Saturday 25 Oct 2014 (Local Time) from KJER Reporting Station
Clear Clear  
Wind Chill: 50°   Ceiling: Unl
Heat Index: 50°   Visibility: 10mi
Dew Point: 29°   Wind: 14mph
Humidity: 44%   Direction: 50°NE
Pressure: 29.97"   Gusts: NA
Location:  42.78°N, 114.7°W
Report Text: KJER 250853Z AUTO 05012KT 10SM CLR 10/M02 A2997 RMK AO2 SLP122 T01001017 58006
Loading
Personal Weather Stations






























Interactive Weather Map
Tropical Storm Tracking
New forecast layout! Learn more

10-Day Weather Forecast

Advertisements
Track Severe Weather on mobile